createdAt,value
2019-03-22T00:01:15.497Z,4.37
2019-03-22T00:03:46.317Z,7.00
2019-03-22T00:06:16.830Z,11.40
2019-03-22T00:08:47.374Z,9.90
2019-03-22T00:11:18.101Z,5.77
2019-03-22T00:13:48.649Z,6.03
2019-03-22T00:16:19.182Z,4.97
2019-03-22T00:18:49.985Z,9.13
2019-03-22T00:21:20.877Z,5.03
2019-03-22T00:23:51.773Z,7.70
2019-03-22T00:26:22.267Z,5.20
2019-03-22T00:28:52.960Z,4.87
2019-03-22T00:31:23.525Z,8.67
2019-03-22T00:33:54.053Z,6.07
2019-03-22T00:36:24.702Z,5.90
2019-03-22T00:38:55.184Z,4.43
2019-03-22T00:41:25.972Z,6.90
2019-03-22T00:43:56.488Z,4.67
2019-03-22T00:46:26.977Z,4.23
2019-03-22T00:48:57.481Z,4.43
2019-03-22T00:51:28.169Z,5.07
2019-03-22T00:53:58.645Z,4.27
2019-03-22T00:56:29.125Z,8.17
2019-03-22T00:58:59.707Z,5.43
2019-03-22T01:01:30.297Z,8.13
2019-03-22T01:04:00.792Z,6.50
2019-03-22T01:06:31.309Z,4.37
2019-03-22T01:09:01.896Z,4.47
2019-03-22T01:11:32.417Z,5.63
2019-03-22T01:14:03.013Z,4.17
2019-03-22T01:16:33.617Z,4.93
2019-03-22T01:19:04.181Z,5.30
2019-03-22T01:21:34.784Z,4.77
2019-03-22T01:24:05.375Z,4.33
2019-03-22T01:26:35.968Z,3.17
2019-03-22T01:29:06.513Z,6.33
2019-03-22T01:31:37.072Z,4.40
2019-03-22T01:34:07.589Z,6.10
2019-03-22T01:36:38.053Z,4.10
2019-03-22T01:39:08.589Z,3.57
2019-03-22T01:41:39.237Z,3.83
2019-03-22T01:44:09.801Z,3.90
2019-03-22T01:46:40.341Z,3.37
2019-03-22T01:49:10.889Z,4.03
2019-03-22T01:51:41.392Z,4.30
2019-03-22T01:54:12.033Z,4.13
2019-03-22T01:56:43.529Z,3.47
2019-03-22T01:59:14.705Z,5.00
2019-03-22T02:01:45.330Z,3.30
2019-03-22T02:04:15.931Z,3.13
2019-03-22T02:06:46.821Z,4.30
2019-03-22T02:09:17.528Z,8.63
2019-03-22T02:11:48.081Z,12.10
2019-03-22T02:14:19.219Z,7.87
2019-03-22T02:16:49.720Z,8.10
2019-03-22T02:19:21.158Z,3.50
2019-03-22T02:21:51.804Z,4.67
2019-03-22T02:24:22.604Z,5.10
2019-03-22T02:26:53.146Z,8.53
2019-03-22T02:29:24.048Z,5.40
2019-03-22T02:31:54.591Z,5.20
2019-03-22T02:34:25.313Z,6.03
2019-03-22T02:36:56.283Z,5.90
2019-03-22T02:39:27.679Z,13.20
2019-03-22T02:41:58.905Z,7.43
2019-03-22T02:44:29.614Z,5.60
2019-03-22T02:47:00.157Z,6.93
2019-03-22T02:49:30.723Z,4.13
2019-03-22T02:52:01.355Z,5.77
2019-03-22T02:54:33.341Z,5.17
2019-03-22T02:57:05.334Z,5.20
2019-03-22T02:59:35.885Z,5.43
2019-03-22T03:02:08.106Z,9.70
2019-03-22T03:04:38.737Z,6.47
2019-03-22T03:07:09.281Z,5.80
2019-03-22T03:09:39.784Z,11.23
2019-03-22T03:12:10.345Z,4.90
2019-03-22T03:14:41.206Z,6.80
2019-03-22T03:17:12.039Z,5.83
2019-03-22T03:19:42.825Z,9.47
2019-03-22T03:22:13.383Z,4.60
2019-03-22T03:24:43.944Z,6.30
2019-03-22T03:27:14.720Z,6.13
2019-03-22T03:29:45.229Z,9.53
2019-03-22T03:32:15.865Z,9.80
2019-03-22T03:34:46.758Z,6.70
2019-03-22T03:37:17.423Z,8.10
2019-03-22T03:39:47.952Z,14.57
2019-03-22T03:42:18.493Z,8.00
2019-03-22T03:44:49.181Z,7.47
2019-03-22T03:47:19.750Z,7.17
2019-03-22T03:49:50.237Z,7.37
2019-03-22T03:52:21.109Z,3.87
2019-03-22T03:54:51.799Z,11.83
2019-03-22T03:57:22.340Z,14.20
2019-03-22T03:59:52.857Z,12.27
2019-03-22T04:02:23.508Z,11.47
2019-03-22T04:04:54.263Z,8.80
2019-03-22T04:07:25.085Z,4.97
2019-03-22T04:09:56.034Z,16.77
2019-03-22T04:12:26.809Z,5.87
2019-03-22T04:14:57.587Z,5.30
2019-03-22T04:17:28.389Z,6.97
2019-03-22T04:19:58.939Z,12.70
2019-03-22T04:22:30.042Z,4.00
2019-03-22T04:25:00.589Z,6.40
2019-03-22T04:27:31.515Z,20.33
2019-03-22T04:30:01.999Z,7.93
2019-03-22T04:32:33.813Z,5.80
2019-03-22T04:35:05.140Z,6.47
2019-03-22T04:37:35.716Z,15.07
2019-03-22T04:40:10.490Z,8.83
2019-03-22T04:42:41.425Z,6.80
2019-03-22T04:45:12.521Z,8.80
2019-03-22T04:47:45.965Z,5.33
2019-03-22T04:50:16.278Z,8.93
2019-03-22T04:52:47.416Z,7.37
2019-03-22T04:55:19.468Z,6.67
2019-03-22T04:57:51.520Z,7.90
2019-03-22T05:00:22.738Z,7.20
2019-03-22T05:02:53.865Z,9.53
2019-03-22T05:05:26.235Z,7.80
2019-03-22T05:07:57.201Z,10.57
2019-03-22T05:10:28.445Z,9.43
2019-03-22T05:13:01.043Z,6.23
2019-03-22T05:15:34.041Z,5.43
2019-03-22T05:18:05.460Z,12.70
2019-03-22T05:20:38.576Z,5.60
2019-03-22T05:23:10.133Z,4.70
2019-03-22T05:25:41.476Z,18.63
2019-03-22T05:28:13.753Z,13.67
2019-03-22T05:31:24.977Z,27.07
2019-03-22T05:33:56.053Z,10.43
2019-03-22T05:36:26.580Z,12.80
2019-03-22T05:38:57.120Z,16.30
2019-03-22T05:41:27.828Z,6.73
2019-03-22T05:43:58.353Z,4.47
2019-03-22T05:46:28.895Z,7.73
2019-03-22T05:48:59.392Z,11.83
2019-03-22T05:51:29.993Z,10.80
2019-03-22T05:54:01.705Z,11.60
2019-03-22T05:56:32.749Z,23.47
2019-03-22T05:59:03.805Z,11.83
2019-03-22T06:01:34.606Z,22.47
2019-03-22T06:04:05.388Z,33.03
2019-03-22T06:06:36.274Z,7.87
2019-03-22T06:09:09.343Z,9.33
2019-03-22T06:11:50.716Z,10.10
2019-03-22T06:14:21.224Z,11.23
2019-03-22T06:16:52.197Z,21.00
2019-03-22T06:19:23.030Z,21.33
2019-03-22T06:21:53.552Z,6.20
2019-03-22T06:24:24.106Z,6.67
2019-03-22T06:26:54.663Z,15.10
2019-03-22T06:29:25.186Z,8.57
2019-03-22T06:31:55.717Z,13.30
2019-03-22T06:34:27.169Z,11.50
2019-03-22T06:36:57.684Z,10.30
2019-03-22T06:39:28.273Z,7.30
2019-03-22T06:41:59.340Z,11.23
2019-03-22T06:44:30.203Z,7.47
2019-03-22T06:47:01.040Z,12.60
2019-03-22T06:49:32.159Z,6.63
2019-03-22T06:52:02.690Z,15.07
2019-03-22T06:54:33.404Z,13.63
2019-03-22T06:57:04.061Z,11.87
2019-03-22T06:59:34.660Z,16.23
2019-03-22T07:02:05.861Z,11.70
2019-03-22T07:04:36.409Z,13.17
2019-03-22T07:07:07.091Z,16.00
2019-03-22T07:09:37.617Z,12.23
2019-03-22T07:12:08.239Z,17.20
2019-03-22T07:14:39.264Z,9.13
2019-03-22T07:17:10.080Z,10.20
2019-03-22T07:19:40.896Z,11.97
2019-03-22T07:22:11.390Z,21.10
2019-03-22T07:24:42.941Z,12.63
2019-03-22T07:27:13.783Z,13.10
2019-03-22T07:29:44.333Z,22.97
2019-03-22T07:32:15.071Z,14.20
2019-03-22T07:34:46.154Z,10.70
2019-03-22T07:37:16.669Z,14.00
2019-03-22T07:39:47.297Z,17.20
2019-03-22T07:42:17.939Z,11.90
2019-03-22T07:44:48.741Z,15.73
2019-03-22T07:47:19.322Z,10.13
2019-03-22T07:49:49.825Z,18.27
2019-03-22T07:52:20.336Z,10.90
2019-03-22T07:54:50.812Z,24.13
2019-03-22T07:57:21.378Z,18.57
2019-03-22T07:59:51.924Z,27.07
2019-03-22T08:02:25.519Z,11.43
2019-03-22T08:04:55.619Z,26.13
2019-03-22T08:07:26.204Z,30.47
2019-03-22T08:09:57.096Z,10.60
2019-03-22T08:12:28.198Z,16.37
2019-03-22T08:14:59.457Z,10.13
2019-03-22T08:17:30.115Z,15.30
2019-03-22T08:20:00.844Z,24.43
2019-03-22T08:22:31.350Z,10.07
2019-03-22T08:25:01.845Z,9.87
2019-03-22T08:27:32.381Z,14.17
2019-03-22T08:30:02.993Z,17.03
2019-03-22T08:32:33.586Z,8.03
2019-03-22T08:35:04.228Z,10.53
2019-03-22T08:37:34.926Z,12.43
2019-03-22T08:40:05.914Z,22.50
2019-03-22T08:42:36.636Z,14.00
2019-03-22T08:45:07.378Z,15.03
2019-03-22T08:47:37.927Z,14.90
2019-03-22T08:50:09.699Z,8.90
2019-03-22T08:52:40.275Z,15.17
2019-03-22T08:55:10.866Z,17.77
2019-03-22T08:57:41.417Z,16.67
2019-03-22T09:00:12.447Z,17.20
2019-03-22T09:02:42.987Z,14.00
2019-03-22T09:05:13.621Z,10.33
2019-03-22T09:07:44.187Z,9.67
2019-03-22T09:10:14.941Z,24.60
2019-03-22T09:12:45.517Z,14.03
2019-03-22T09:15:16.834Z,12.00
2019-03-22T09:17:47.383Z,12.30
2019-03-22T09:20:17.936Z,8.40
2019-03-22T09:22:48.425Z,20.33
2019-03-22T09:25:18.896Z,12.70
2019-03-22T09:27:49.448Z,19.53
2019-03-22T09:30:20.061Z,20.23
2019-03-22T09:32:50.602Z,24.47
2019-03-22T09:35:21.433Z,29.87
2019-03-22T09:37:51.992Z,17.10
2019-03-22T09:40:22.950Z,18.27
2019-03-22T09:42:53.457Z,22.60
2019-03-22T09:45:24.068Z,19.73
2019-03-22T09:47:54.676Z,13.60
2019-03-22T09:50:25.212Z,12.20
2019-03-22T09:52:55.737Z,9.17
2019-03-22T09:55:26.249Z,22.67
2019-03-22T09:57:56.872Z,16.03
2019-03-22T10:00:32.208Z,13.00
2019-03-22T10:03:03.287Z,11.27
2019-03-22T10:05:33.805Z,15.83
2019-03-22T10:08:04.458Z,23.33
2019-03-22T10:10:36.225Z,18.80
2019-03-22T10:13:07.224Z,16.40
2019-03-22T10:15:38.184Z,29.97
2019-03-22T10:18:08.863Z,19.50
2019-03-22T10:20:39.353Z,12.70
2019-03-22T10:23:10.000Z,23.43
2019-03-22T10:25:40.526Z,26.57
2019-03-22T10:28:11.481Z,18.03
2019-03-22T10:30:42.080Z,15.53
2019-03-22T10:33:22.164Z,25.40
2019-03-22T10:35:44.849Z,20.33
2019-03-22T10:38:16.665Z,17.70
2019-03-22T10:40:47.673Z,25.20
2019-03-22T10:43:18.670Z,33.63
2019-03-22T10:45:49.167Z,17.10
2019-03-22T10:48:19.686Z,17.53
2019-03-22T10:50:50.258Z,16.40
2019-03-22T10:53:21.104Z,17.33
2019-03-22T10:55:51.869Z,21.93
2019-03-22T10:58:22.892Z,26.70
2019-03-22T11:00:53.460Z,38.23
2019-03-22T11:03:24.189Z,16.53
2019-03-22T11:05:55.018Z,12.50
2019-03-22T11:08:25.605Z,14.00
2019-03-22T11:10:56.152Z,15.13
2019-03-22T11:13:27.266Z,22.47
2019-03-22T11:15:57.931Z,7.60
2019-03-22T11:18:37.046Z,12.80
2019-03-22T11:21:05.139Z,18.80
2019-03-22T11:23:33.302Z,13.33
2019-03-22T11:26:04.603Z,14.70
2019-03-22T11:28:35.349Z,14.00
2019-03-22T11:31:06.884Z,9.77
2019-03-22T11:33:37.394Z,16.10
2019-03-22T11:36:07.912Z,12.53
2019-03-22T11:38:38.525Z,13.20
2019-03-22T11:41:09.108Z,13.33
2019-03-22T11:43:39.656Z,16.10
2019-03-22T11:46:10.185Z,18.37
2019-03-22T11:48:40.897Z,11.70
2019-03-22T11:51:11.696Z,14.20
2019-03-22T11:53:42.245Z,19.00
2019-03-22T11:56:12.765Z,7.57
2019-03-22T11:58:43.289Z,17.03
2019-03-22T12:01:20.274Z,9.25
2019-03-22T12:03:46.482Z,16.40
2019-03-22T12:06:17.155Z,9.43
2019-03-22T12:08:47.644Z,14.50
2019-03-22T12:11:18.252Z,15.13
2019-03-22T12:13:49.057Z,25.47
2019-03-22T12:16:19.672Z,18.67
2019-03-22T12:18:50.554Z,8.97
2019-03-22T12:21:21.131Z,18.83
2019-03-22T12:23:51.692Z,22.20
2019-03-22T12:26:22.241Z,22.53
2019-03-22T12:28:52.778Z,10.77
2019-03-22T12:31:23.268Z,12.83
2019-03-22T12:33:54.065Z,17.73
2019-03-22T12:36:24.699Z,13.73
2019-03-22T12:38:55.186Z,12.23
2019-03-22T12:41:25.807Z,15.70
2019-03-22T12:43:57.058Z,14.63
2019-03-22T12:46:27.581Z,13.63
2019-03-22T12:48:58.359Z,18.97
2019-03-22T12:51:29.177Z,20.10
2019-03-22T12:53:59.995Z,18.43
2019-03-22T12:56:30.576Z,12.05
2019-03-22T12:59:01.200Z,15.00
2019-03-22T13:01:31.742Z,15.43
2019-03-22T13:04:02.354Z,9.57
2019-03-22T13:06:32.873Z,14.17
2019-03-22T13:09:03.753Z,19.83
2019-03-22T13:11:38.349Z,19.37
2019-03-22T13:14:09.343Z,17.60
2019-03-22T13:16:40.527Z,16.03
2019-03-22T13:19:11.073Z,16.73
2019-03-22T13:21:41.586Z,20.03
2019-03-22T13:24:12.136Z,27.33
2019-03-22T13:26:42.940Z,21.73
2019-03-22T13:29:13.446Z,20.47
2019-03-22T13:31:44.009Z,23.00
2019-03-22T13:34:14.561Z,19.60
2019-03-22T13:36:45.408Z,21.33
2019-03-22T13:39:15.926Z,31.77
2019-03-22T13:41:46.461Z,22.13
2019-03-22T13:44:16.959Z,22.63
2019-03-22T13:46:49.839Z,15.50
2019-03-22T13:49:20.501Z,25.10
2019-03-22T13:51:51.016Z,21.47
2019-03-22T13:54:21.594Z,24.10
2019-03-22T13:56:52.214Z,15.73
2019-03-22T13:59:23.277Z,22.67
2019-03-22T14:01:54.071Z,17.93
2019-03-22T14:04:24.642Z,17.80
2019-03-22T14:06:55.689Z,19.37
2019-03-22T14:09:26.576Z,15.83
2019-03-22T14:11:57.338Z,21.10
2019-03-22T14:14:29.029Z,22.47
2019-03-22T14:16:59.626Z,27.30
2019-03-22T14:19:30.266Z,30.30
2019-03-22T14:22:01.046Z,14.47
2019-03-22T14:24:31.601Z,24.90
2019-03-22T14:27:02.167Z,16.00
2019-03-22T14:29:32.769Z,13.50
2019-03-22T14:32:03.882Z,26.50
2019-03-22T14:34:34.713Z,22.10
2019-03-22T14:37:05.755Z,16.80
2019-03-22T14:39:36.448Z,20.90
2019-03-22T14:42:06.947Z,25.63
2019-03-22T14:44:37.489Z,21.17
2019-03-22T14:47:07.997Z,32.07
2019-03-22T14:49:39.046Z,25.97
2019-03-22T14:52:09.609Z,29.87
2019-03-22T14:54:40.585Z,23.97
2019-03-22T14:57:11.192Z,23.00
2019-03-22T14:59:41.675Z,37.37
2019-03-22T15:02:12.288Z,26.67
2019-03-22T15:04:42.838Z,19.13
2019-03-22T15:07:19.481Z,14.03
2019-03-22T15:09:46.362Z,15.83
2019-03-22T15:12:16.988Z,21.27
2019-03-22T15:15:12.501Z,18.80
2019-03-22T15:18:14.180Z,23.07
2019-03-22T15:21:21.973Z,19.30
2019-03-22T15:24:30.080Z,24.47
2019-03-22T15:27:22.818Z,36.43
2019-03-22T15:30:05.537Z,34.20
2019-03-22T15:32:53.940Z,19.40
2019-03-22T15:35:42.012Z,32.50
2019-03-22T15:38:27.900Z,23.83
2019-03-22T15:40:58.482Z,19.70
2019-03-22T15:43:29.026Z,32.23
2019-03-22T15:45:59.697Z,22.57
2019-03-22T15:48:30.279Z,27.37
2019-03-22T15:51:01.583Z,19.53
2019-03-22T15:53:32.105Z,20.67
2019-03-22T15:56:02.609Z,24.23
2019-03-22T15:58:33.101Z,21.33
2019-03-22T16:01:03.618Z,31.83
2019-03-22T16:03:43.874Z,40.30
2019-03-22T16:06:06.629Z,20.10
2019-03-22T16:08:37.179Z,28.17
2019-03-22T16:11:07.705Z,20.67
2019-03-22T16:13:38.369Z,28.53
2019-03-22T16:16:09.050Z,29.43
2019-03-22T16:18:39.670Z,25.80
2019-03-22T16:21:10.215Z,27.37
2019-03-22T16:23:40.815Z,33.27
2019-03-22T16:26:11.532Z,46.90
2019-03-22T16:28:42.151Z,22.83
2019-03-22T16:31:13.218Z,29.03
2019-03-22T16:33:50.622Z,22.00
2019-03-22T16:36:16.037Z,26.80
2019-03-22T16:38:46.814Z,23.53
2019-03-22T16:41:17.352Z,25.23
2019-03-22T16:43:47.894Z,25.17
2019-03-22T16:46:18.497Z,21.80
2019-03-22T16:48:49.084Z,33.43
2019-03-22T16:51:19.639Z,43.63
2019-03-22T16:53:50.193Z,32.60
2019-03-22T16:56:20.690Z,30.37
2019-03-22T16:58:55.721Z,24.60
2019-03-22T17:01:26.249Z,36.00
2019-03-22T17:04:04.057Z,16.00
2019-03-22T17:06:29.068Z,25.07
2019-03-22T17:09:00.415Z,25.97
2019-03-22T17:11:31.126Z,28.50
2019-03-22T17:14:02.831Z,23.50
2019-03-22T17:16:33.884Z,19.77
2019-03-22T17:19:05.297Z,16.97
2019-03-22T17:21:36.346Z,21.77
2019-03-22T17:24:07.149Z,15.30
2019-03-22T17:26:38.998Z,18.03
2019-03-22T17:29:09.632Z,20.90
2019-03-22T17:31:40.341Z,27.00
2019-03-22T17:34:14.446Z,18.77
2019-03-22T17:36:43.389Z,13.13
2019-03-22T17:39:17.299Z,22.63
2019-03-22T17:41:47.528Z,29.20
2019-03-22T17:44:18.654Z,21.53
2019-03-22T17:46:49.223Z,18.37
2019-03-22T17:49:20.017Z,12.63
2019-03-22T17:51:50.544Z,10.57
2019-03-22T17:54:21.175Z,10.17
2019-03-22T17:56:52.465Z,9.90
2019-03-22T17:59:23.013Z,16.63
2019-03-22T18:01:54.028Z,12.00
2019-03-22T18:04:24.816Z,7.20
2019-03-22T18:06:55.696Z,9.00
2019-03-22T18:09:26.265Z,14.70
2019-03-22T18:11:56.752Z,13.80
2019-03-22T18:14:27.454Z,6.60
2019-03-22T18:16:58.142Z,8.30
2019-03-22T18:19:28.735Z,11.03
2019-03-22T18:21:59.533Z,24.10
2019-03-22T18:24:30.077Z,23.17
2019-03-22T18:27:00.618Z,26.37
2019-03-22T18:29:31.129Z,14.53
2019-03-22T18:32:01.722Z,11.07
2019-03-22T18:34:34.839Z,13.10
2019-03-22T18:37:04.764Z,12.27
2019-03-22T18:39:35.373Z,14.83
2019-03-22T18:42:06.120Z,8.53
2019-03-22T18:44:36.652Z,15.00
2019-03-22T18:47:07.329Z,14.40
2019-03-22T18:49:37.802Z,8.60
2019-03-22T18:52:08.498Z,9.30
2019-03-22T18:54:39.103Z,12.50
2019-03-22T18:57:09.612Z,6.87
2019-03-22T18:59:40.190Z,7.70
2019-03-22T19:02:10.709Z,7.97
2019-03-22T19:04:44.396Z,8.83
2019-03-22T19:07:14.098Z,7.23
2019-03-22T19:09:44.644Z,8.20
2019-03-22T19:12:15.270Z,10.53
2019-03-22T19:14:46.441Z,6.53
2019-03-22T19:17:17.051Z,6.63
2019-03-22T19:19:48.114Z,7.60
2019-03-22T19:22:18.690Z,8.57
2019-03-22T19:24:49.460Z,4.07
2019-03-22T19:27:20.232Z,7.13
2019-03-22T19:29:50.789Z,5.60
2019-03-22T19:32:21.457Z,6.73
2019-03-22T19:34:54.695Z,5.83
2019-03-22T19:37:24.410Z,7.20
2019-03-22T19:39:54.904Z,5.13
2019-03-22T19:42:25.809Z,6.20
2019-03-22T19:44:57.046Z,7.80
2019-03-22T19:47:27.633Z,11.83
2019-03-22T19:49:58.296Z,13.13
2019-03-22T19:52:29.049Z,7.07
2019-03-22T19:54:59.813Z,5.63
2019-03-22T19:57:30.358Z,7.13
2019-03-22T20:00:01.050Z,11.87
2019-03-22T20:02:32.031Z,7.50
2019-03-22T20:05:04.906Z,7.93
2019-03-22T20:07:35.543Z,7.97
2019-03-22T20:10:07.394Z,8.20
2019-03-22T20:12:38.201Z,7.60
2019-03-22T20:15:09.732Z,8.20
2019-03-22T20:17:40.556Z,10.77
2019-03-22T20:20:11.457Z,8.50
2019-03-22T20:22:42.010Z,16.67
2019-03-22T20:25:12.934Z,6.37
2019-03-22T20:27:43.558Z,7.33
2019-03-22T20:30:17.762Z,9.67
2019-03-22T20:32:48.305Z,6.30
2019-03-22T20:35:19.157Z,8.70
2019-03-22T20:37:51.727Z,10.67
2019-03-22T20:40:22.302Z,6.60
2019-03-22T20:42:53.107Z,10.40
2019-03-22T20:45:24.613Z,5.33
2019-03-22T20:47:55.628Z,8.00
2019-03-22T20:50:35.406Z,9.07
2019-03-22T20:52:58.657Z,12.73
2019-03-22T20:55:29.417Z,8.30
2019-03-22T20:57:59.947Z,9.37
2019-03-22T21:00:30.681Z,5.90
2019-03-22T21:03:02.761Z,7.30
2019-03-22T21:05:33.464Z,13.50
2019-03-22T21:08:04.004Z,9.63
2019-03-22T21:10:34.934Z,11.53
2019-03-22T21:13:05.689Z,6.77
2019-03-22T21:15:36.730Z,9.00
2019-03-22T21:18:08.091Z,13.10
2019-03-22T21:20:38.984Z,16.27
2019-03-22T21:23:09.831Z,12.07
2019-03-22T21:25:40.362Z,12.87
2019-03-22T21:28:11.109Z,14.60
2019-03-22T21:30:41.630Z,9.83
2019-03-22T21:33:12.164Z,11.00
2019-03-22T21:35:42.689Z,8.70
2019-03-22T21:38:15.716Z,9.10
2019-03-22T21:40:46.566Z,13.57
2019-03-22T21:43:17.165Z,9.00
2019-03-22T21:45:49.079Z,6.50
2019-03-22T21:48:19.596Z,15.10
2019-03-22T21:50:50.213Z,10.10
2019-03-22T21:53:20.864Z,13.43
2019-03-22T21:55:51.603Z,10.23
2019-03-22T21:58:22.102Z,12.17
2019-03-22T22:00:52.713Z,8.67
2019-03-22T22:03:23.477Z,11.80
2019-03-22T22:05:54.160Z,10.40
2019-03-22T22:08:24.707Z,10.10
2019-03-22T22:10:59.592Z,4.30
2019-03-22T22:13:27.573Z,8.60
2019-03-22T22:15:58.195Z,8.30
2019-03-22T22:18:29.680Z,6.77
2019-03-22T22:21:00.232Z,7.17
2019-03-22T22:23:30.811Z,7.20
2019-03-22T22:26:01.599Z,5.23
2019-03-22T22:28:32.159Z,8.70
2019-03-22T22:31:02.701Z,7.37
2019-03-22T22:33:33.171Z,7.57
2019-03-22T22:36:03.857Z,6.90
2019-03-22T22:38:34.379Z,5.47
2019-03-22T22:41:04.935Z,17.30
2019-03-22T22:43:35.716Z,6.63
2019-03-22T22:46:06.657Z,5.23
2019-03-22T22:48:37.372Z,16.77
2019-03-22T22:51:07.889Z,6.47
2019-03-22T22:53:38.709Z,8.87
2019-03-22T22:56:09.572Z,7.20
2019-03-22T22:58:40.368Z,11.53
2019-03-22T23:01:11.078Z,10.00
2019-03-22T23:03:42.117Z,6.30
2019-03-22T23:06:12.673Z,5.50
2019-03-22T23:08:43.260Z,4.17
2019-03-22T23:11:13.801Z,7.40
2019-03-22T23:13:44.398Z,12.13
2019-03-22T23:16:14.993Z,9.27
2019-03-22T23:18:45.728Z,10.57
2019-03-22T23:21:16.246Z,8.23
2019-03-22T23:23:47.368Z,4.10
2019-03-22T23:26:18.008Z,3.80
2019-03-22T23:28:48.649Z,6.17
2019-03-22T23:31:19.845Z,6.27
2019-03-22T23:33:50.575Z,4.50
2019-03-22T23:36:21.797Z,9.97
2019-03-22T23:38:52.425Z,3.77
2019-03-22T23:41:23.037Z,3.97
2019-03-22T23:43:53.585Z,4.60
2019-03-22T23:46:24.144Z,6.20
2019-03-22T23:48:54.785Z,11.53
2019-03-22T23:51:25.275Z,6.20
2019-03-22T23:53:56.359Z,6.33
2019-03-22T23:56:26.903Z,3.00
2019-03-22T23:58:57.836Z,4.63
